Terminal Aerodrome Forecast
Issued by NWS Albany, NY

Home | Current Version | Previous Version | Text Only | Print | Product List | Glossary On
Versions: 1 2 3 4 5 6 7 8 9 10 11 12 13 14 15 16 17 18 19 20 21 22
000
FTUS41 KALY 140600 AAA
TAFGFL
TAF AMD
KGFL 140616Z 1406/1506 00000KT 1/4SM FG VV002
      TEMPO 1406/1410 2SM BR BKN008
     FM141200 VRB03KT P6SM BKN050
     FM141700 19006KT P6SM VCSH BKN050
     FM150200 18003KT 4SM BR VCSH BKN040=

USA.gov is the U.S. government's official web portal to all federal, state and local government web resources and services.